Time;durP1;ratioP1;P1;durP2;ratioP2;P2;SDS_P1;SDS_P2;PMS_P1;PMS_P2;Temp;Humidity;BMP_temperature;BMP_pressure;BME280_temperature;BME280_humidity;BME280_pressure;Samples;Min_cycle;Max_cycle;Signal;HPM_P1;HPM_P2
2023/03/27 00:02:07;;;;;;;0.30;0.30;;;;;;;14.40;97.32;99187.03;5094323;28;20506;-71
2023/03/27 00:04:33;;;;;;;0.20;0.20;;;;;;;14.38;100.00;99197.03;5076024;28;20020;-71
2023/03/27 00:07:04;;;;;;;0.20;0.20;;;;;;;14.27;100.00;99182.34;5076097;28;20039;-69
2023/03/27 00:09:30;;;;;;;0.20;0.20;;;;;;;14.22;100.00;99180.81;5075856;28;20089;-71
2023/03/27 00:12:01;;;;;;;0.22;0.22;;;;;;;14.21;100.00;99173.59;5075960;28;20040;-71
2023/03/27 00:14:32;;;;;;;0.20;0.20;;;;;;;14.14;100.00;99162.47;5075962;28;20024;-71
2023/03/27 00:16:58;;;;;;;0.20;0.20;;;;;;;14.18;100.00;99162.44;5076434;28;20032;-71
2023/03/27 00:19:27;;;;;;;0.20;0.20;;;;;;;14.02;100.00;99152.56;5075905;28;20059;-72
2023/03/27 00:21:55;;;;;;;0.20;0.20;;;;;;;14.02;100.00;99144.19;5075918;28;20039;-70
2023/03/27 00:24:21;;;;;;;0.20;0.20;;;;;;;14.02;100.00;99149.78;5093530;28;20071;-73
2023/03/27 00:26:46;;;;;;;0.20;0.20;;;;;;;14.04;100.00;99157.75;5076277;28;20431;-74
2023/03/27 00:29:12;;;;;;;0.20;0.20;;;;;;;14.00;100.00;99156.97;5076178;28;20055;-71
2023/03/27 00:31:40;;;;;;;0.20;0.20;;;;;;;14.02;100.00;99149.78;5076083;28;20442;-73
2023/03/27 00:34:09;;;;;;;0.30;0.30;;;;;;;14.09;100.00;99143.34;5076127;28;20031;-73
2023/03/27 00:36:36;;;;;;;0.20;0.20;;;;;;;14.13;100.00;99138.50;5092728;28;20032;-72
2023/03/27 00:39:05;;;;;;;0.20;0.20;;;;;;;14.06;100.00;99133.78;5076062;28;20474;-72
2023/03/27 00:41:32;;;;;;;0.30;0.30;;;;;;;14.01;100.00;99136.19;5076264;28;20028;-71
2023/03/27 00:44:03;;;;;;;0.20;0.20;;;;;;;13.97;100.00;99130.63;5076134;28;20028;-71
2023/03/27 00:46:41;;;;;;;0.20;0.20;;;;;;;14.08;100.00;99148.13;5093837;28;20042;-72
2023/03/27 00:49:13;;;;;;;0.30;0.30;;;;;;;14.03;100.00;99144.97;5093847;28;20370;-73
2023/03/27 00:51:48;;;;;;;0.30;0.30;;;;;;;14.08;100.00;99136.94;5094047;28;20521;-71
2023/03/27 00:54:20;;;;;;;0.20;0.20;;;;;;;14.04;100.00;99133.38;5093699;28;20474;-72
2023/03/27 00:56:49;;;;;;;0.20;0.20;;;;;;;14.02;100.00;99124.63;5075798;28;20383;-73
2023/03/27 00:59:22;;;;;;;0.20;0.20;;;;;;;14.04;100.00;99124.19;5093568;28;20024;-72
2023/03/27 01:01:51;;;;;;;0.20;0.20;;;;;;;14.00;100.00;99129.81;5054245;28;20451;-70
2023/03/27 01:04:20;;;;;;;0.28;0.28;;;;;;;14.07;100.00;99138.16;5053446;28;20494;-72
2023/03/27 01:06:50;;;;;;;0.20;0.20;;;;;;;14.10;100.00;99122.53;5052791;28;20029;-73
2023/03/27 01:09:19;;;;;;;0.20;0.20;;;;;;;14.14;100.00;99121.31;5055876;28;20559;-73
2023/03/27 01:11:52;;;;;;;0.30;0.30;;;;;;;14.16;100.00;99121.69;5056052;28;20029;-73
2023/03/27 01:14:48;;;;;;;0.20;0.20;;;;;;;14.31;100.00;99135.56;5056876;28;20086;-70
2023/03/27 01:17:38;;;;;;;0.20;0.20;;;;;;;14.30;100.00;99119.97;5056133;28;20037;-71
2023/03/27 01:20:55;;;;;;;0.20;0.20;;;;;;;14.23;100.00;99120.84;5056912;28;20056;-72
2023/03/27 01:23:47;;;;;;;0.30;0.30;;;;;;;14.15;100.00;99074.53;5004443;28;20046;-73
2023/03/27 01:27:01;;;;;;;0.20;0.20;;;;;;;14.23;100.00;99103.25;5058280;28;20029;-72
2023/03/27 01:30:05;;;;;;;0.20;0.20;;;;;;;14.21;100.00;99125.25;5055619;28;20035;-70
2023/03/27 01:32:40;;;;;;;0.20;0.20;;;;;;;14.15;100.00;99114.50;5056160;28;20029;-73
2023/03/27 01:35:24;;;;;;;0.20;0.20;;;;;;;14.14;100.00;99121.31;5055800;28;20033;-73
2023/03/27 01:38:08;;;;;;;;;;;;;;;14.16;100.00;99110.50;5055975;28;20031;-73
2023/03/27 01:40:48;;;;;;;0.20;0.20;;;;;;;14.21;100.00;99116.84;5072174;28;19912;-71
2023/03/27 01:43:22;;;;;;;0.20;0.20;;;;;;;14.18;100.00;99110.09;5056053;28;20033;-72
2023/03/27 01:46:01;;;;;;;0.20;0.20;;;;;;;14.22;100.00;99107.25;5057931;28;20029;-72
2023/03/27 01:48:43;;;;;;;0.20;0.20;;;;;;;14.22;100.00;99102.47;5055620;28;20025;-70
2023/03/27 01:51:24;;;;;;;0.20;0.20;;;;;;;14.16;100.00;99098.50;5055098;28;20052;-70
2023/03/27 01:54:14;;;;;;;0.20;0.20;;;;;;;14.18;100.00;99107.28;5054762;28;20036;-71
2023/03/27 01:56:52;;;;;;;0.20;0.20;;;;;;;14.12;100.00;99104.16;5055165;28;20029;-72
2023/03/27 01:59:20;;;;;;;0.30;0.30;;;;;;;14.07;100.00;99098.22;5055941;28;20372;-72
2023/03/27 02:01:55;;;;;;;0.20;0.20;;;;;;;14.12;100.00;99084.56;5055050;28;20085;-71
2023/03/27 02:04:27;;;;;;;0.20;0.20;;;;;;;14.04;100.00;99080.22;5056847;28;20395;-72
2023/03/27 02:07:02;;;;;;;0.30;0.30;;;;;;;13.94;100.00;99075.53;5055081;28;20065;-73
2023/03/27 02:09:37;;;;;;;0.28;0.28;;;;;;;14.01;100.00;99080.25;5055281;28;20386;-70
2023/03/27 02:12:15;;;;;;;0.20;0.20;;;;;;;13.97;100.00;99074.72;5055166;28;20033;-71
2023/03/27 02:14:55;;;;;;;0.30;0.30;;;;;;;13.93;100.00;99084.34;5056048;28;20426;-72
2023/03/27 02:17:24;;;;;;;0.30;0.30;;;;;;;13.92;100.00;99077.94;5055331;28;20029;-72
2023/03/27 02:19:59;;;;;;;0.20;0.20;;;;;;;13.88;100.00;99075.19;5054225;28;20167;-71
2023/03/27 02:22:27;;;;;;;0.20;0.20;;;;;;;13.86;100.00;99068.41;5054583;28;20029;-71
2023/03/27 02:24:54;;;;;;;0.30;0.30;;;;;;;13.83;100.00;99072.03;5056446;28;20383;-72
2023/03/27 02:27:44;;;;;;;0.20;0.20;;;;;;;13.81;100.00;99066.84;5054571;28;20059;-70
2023/03/27 02:30:30;;;;;;;0.30;0.30;;;;;;;13.82;100.00;99071.22;5054449;28;20021;-70
2023/03/27 02:33:13;;;;;;;0.20;0.20;;;;;;;13.75;100.00;99079.69;5055944;28;20024;-71
2023/03/27 02:36:04;;;;;;;0.20;0.20;;;;;;;13.74;100.00;99077.28;5054414;28;20021;-71
2023/03/27 02:38:48;;;;;;;0.20;0.20;;;;;;;13.52;100.00;99043.91;5055064;28;20426;-71
2023/03/27 02:41:29;;;;;;;0.20;0.20;;;;;;;13.63;100.00;99060.59;5054605;28;20029;-72
2023/03/27 02:44:02;;;;;;;0.20;0.20;;;;;;;13.60;100.00;99079.00;5054224;28;20079;-69
2023/03/27 02:46:31;;;;;;;0.30;0.30;;;;;;;13.47;97.89;99080.66;5055522;28;20029;-71
2023/03/27 02:49:01;;;;;;;0.20;0.20;;;;;;;13.40;97.29;99079.91;5054374;28;20040;-72
2023/03/27 02:51:39;;;;;;;0.20;0.20;;;;;;;13.38;96.45;99088.72;5054038;28;20025;-72
2023/03/27 02:54:13;;;;;;;0.20;0.20;;;;;;;13.08;96.09;99053.72;5054014;28;20475;-72
2023/03/27 02:56:47;;;;;;;0.20;0.20;;;;;;;13.27;95.70;99072.03;5053934;28;20091;-70
2023/03/27 02:59:23;;;;;;;0.20;0.20;;;;;;;13.15;94.96;99075.22;5053934;28;20078;-71
2023/03/27 03:01:51;;;;;;;0.30;0.30;;;;;;;13.11;95.88;99074.47;5053477;28;20072;-70
2023/03/27 03:04:24;;;;;;;0.30;0.30;;;;;;;13.07;95.90;99080.06;5053766;28;20029;-70
2023/03/27 03:06:55;;;;;;;0.20;0.20;;;;;;;13.07;96.49;99076.47;5054309;28;20055;-72
2023/03/27 03:09:24;;;;;;;0.20;0.20;;;;;;;13.03;96.65;99068.13;5053618;28;20062;-72
2023/03/27 03:11:52;;;;;;;0.30;0.30;;;;;;;13.09;95.59;99077.66;5053629;28;20025;-72
2023/03/27 03:14:26;;;;;;;0.20;0.20;;;;;;;13.01;96.13;99076.13;5053498;28;20119;-70
2023/03/27 03:16:57;;;;;;;0.20;0.20;;;;;;;12.91;96.33;99057.41;5054060;28;20464;-71
2023/03/27 03:19:27;;;;;;;0.20;0.20;;;;;;;12.90;95.76;99055.81;5055039;28;20028;-72
2023/03/27 03:21:56;;;;;;;0.20;0.20;;;;;;;12.85;96.21;99057.03;5054009;28;20450;-70
2023/03/27 03:24:26;;;;;;;0.20;0.20;;;;;;;12.86;96.83;99052.25;5053662;28;20033;-70
2023/03/27 03:26:54;;;;;;;0.20;0.20;;;;;;;12.80;97.71;99048.28;5054348;28;20087;-73
2023/03/27 03:29:28;;;;;;;0.30;0.30;;;;;;;12.81;97.40;99045.09;5053526;28;20458;-71
2023/03/27 03:31:55;;;;;;;0.20;0.20;;;;;;;12.87;96.18;99044.66;5053191;28;20557;-71
2023/03/27 03:34:26;;;;;;;0.20;0.20;;;;;;;12.81;95.59;99056.25;5053546;28;20460;-72
2023/03/27 03:36:54;;;;;;;0.20;0.20;;;;;;;12.71;96.65;99073.84;5053415;28;20036;-70
2023/03/27 03:39:24;;;;;;;0.20;0.20;;;;;;;12.68;96.19;99071.06;5053390;28;20484;-71
2023/03/27 03:41:55;;;;;;;0.20;0.20;;;;;;;12.66;96.88;99076.25;5054397;28;20033;-70
2023/03/27 03:44:23;;;;;;;0.20;0.20;;;;;;;12.75;96.17;99076.63;5053025;28;20025;-72
2023/03/27 03:46:54;;;;;;;0.28;0.28;;;;;;;12.64;96.02;99054.34;5053599;28;20032;-72
2023/03/27 03:49:19;;;;;;;0.20;0.20;;;;;;;12.82;95.32;99073.78;5053234;28;20021;-72
2023/03/27 03:51:47;;;;;;;0.20;0.20;;;;;;;12.89;94.17;99079.38;5053489;28;20372;-70
2023/03/27 03:54:16;;;;;;;0.20;0.20;;;;;;;12.74;93.78;99083.41;5053181;28;20364;-70
2023/03/27 03:56:46;;;;;;;0.20;0.20;;;;;;;12.65;94.78;99083.81;5052787;28;20029;-70
2023/03/27 03:59:18;;;;;;;0.22;0.22;;;;;;;12.57;95.64;99074.69;5053084;28;20024;-72
2023/03/27 04:01:50;;;;;;;0.20;0.20;;;;;;;12.50;96.31;99073.91;5052446;28;20488;-72
2023/03/27 04:04:16;;;;;;;0.30;0.30;;;;;;;12.43;97.24;99069.13;5054191;28;20029;-72
2023/03/27 04:06:42;;;;;;;0.20;0.20;;;;;;;12.47;97.15;99069.13;5054568;28;20085;-72
2023/03/27 04:09:08;;;;;;;0.20;0.20;;;;;;;12.42;98.21;99059.19;5053568;28;20378;-70
2023/03/27 04:11:36;;;;;;;0.20;0.20;;;;;;;12.42;99.20;99056.41;5052851;28;20508;-70
2023/03/27 04:14:04;;;;;;;0.20;0.20;;;;;;;12.39;99.57;99062.75;5052906;28;20463;-72
2023/03/27 04:16:30;;;;;;;0.20;0.20;;;;;;;12.36;99.85;99063.59;5052988;28;20056;-70
2023/03/27 04:18:55;;;;;;;0.20;0.20;;;;;;;12.36;100.00;99057.19;5053277;28;20452;-73
2023/03/27 04:21:23;;;;;;;0.20;0.20;;;;;;;12.33;99.95;99065.16;5053313;28;20031;-72
2023/03/27 04:23:49;;;;;;;0.20;0.20;;;;;;;12.33;100.00;99059.59;5053210;28;20031;-71
2023/03/27 04:26:15;;;;;;;0.20;0.20;;;;;;;12.31;100.00;99045.25;5052990;28;20174;-71
2023/03/27 04:28:43;;;;;;;0.30;0.30;;;;;;;12.28;100.00;99053.63;5052745;28;20083;-71
2023/03/27 04:31:09;;;;;;;0.20;0.20;;;;;;;12.27;100.00;99052.84;5052869;28;20372;-69
2023/03/27 04:33:45;;;;;;;0.30;0.30;;;;;;;12.25;100.00;99052.47;5052647;28;20037;-71
2023/03/27 04:36:14;;;;;;;0.30;0.30;;;;;;;12.50;100.00;99044.00;5054429;28;20104;-71
2023/03/27 04:38:42;;;;;;;0.30;0.30;;;;;;;12.48;100.00;99043.63;5052299;28;20028;-70
2023/03/27 04:41:07;;;;;;;0.20;0.20;;;;;;;12.50;100.00;99046.00;5053826;28;20032;-70
2023/03/27 04:43:38;;;;;;;0.30;0.30;;;;;;;12.52;100.00;99050.00;5056069;28;20033;-71
2023/03/27 04:46:07;;;;;;;0.20;0.20;;;;;;;12.61;100.00;99051.53;5056416;28;20033;-72
2023/03/27 04:48:37;;;;;;;0.20;0.20;;;;;;;12.63;100.00;99043.59;5056862;28;20506;-71
2023/03/27 04:51:04;;;;;;;0.30;0.30;;;;;;;12.68;100.00;99035.59;5056270;28;20025;-71
2023/03/27 04:53:35;;;;;;;0.25;0.25;;;;;;;12.72;100.00;99046.72;5056838;28;20032;-70
2023/03/27 04:56:00;;;;;;;0.30;0.30;;;;;;;12.69;100.00;99042.75;5056839;28;20033;-71
2023/03/27 04:58:27;;;;;;;0.20;0.20;;;;;;;12.64;100.00;99047.97;5056487;28;20047;-70
2023/03/27 05:00:56;;;;;;;0.20;0.20;;;;;;;12.66;100.00;99037.19;5058103;28;20041;-73
2023/03/27 05:03:27;;;;;;;0.30;0.30;;;;;;;12.70;100.00;99038.75;5056210;28;20039;-72
2023/03/27 05:05:55;;;;;;;0.20;0.20;;;;;;;12.77;100.00;99027.56;5056552;28;20044;-70
2023/03/27 05:08:20;;;;;;;0.20;0.20;;;;;;;12.74;100.00;99038.75;5056312;28;20399;-71
2023/03/27 05:10:46;;;;;;;0.20;0.20;;;;;;;12.72;100.00;99046.72;5055892;28;20033;-70
2023/03/27 05:13:14;;;;;;;0.20;0.20;;;;;;;12.77;100.00;99054.66;5055957;28;20029;-71
2023/03/27 05:15:40;;;;;;;0.30;0.30;;;;;;;12.77;100.00;99054.66;5055871;28;20467;-70
2023/03/27 05:18:08;;;;;;;0.20;0.20;;;;;;;12.86;100.00;99066.22;5055834;28;20058;-72
2023/03/27 05:20:35;;;;;;;0.20;0.20;;;;;;;12.63;100.00;99030.41;5055854;28;20048;-71
2023/03/27 05:23:05;;;;;;;0.30;0.30;;;;;;;12.86;100.00;99052.25;5057279;28;20040;-71
2023/03/27 05:25:32;;;;;;;0.25;0.25;;;;;;;12.99;100.00;99055.38;5056288;28;20033;-73
2023/03/27 05:28:00;;;;;;;0.30;0.30;;;;;;;13.02;100.00;99060.94;5055677;28;20021;-71
2023/03/27 05:30:27;;;;;;;0.20;0.20;;;;;;;13.05;100.00;99053.75;5056068;28;20029;-74
2023/03/27 05:32:57;;;;;;;0.20;0.20;;;;;;;13.08;100.00;99041.75;5055562;28;20036;-71
2023/03/27 05:35:28;;;;;;;0.30;0.30;;;;;;;13.11;100.00;99041.75;5055702;28;20036;-70
2023/03/27 05:37:58;;;;;;;0.20;0.20;;;;;;;13.18;100.00;99054.09;5056083;28;20025;-71
2023/03/27 05:40:27;;;;;;;0.20;0.20;;;;;;;13.28;100.00;99053.25;5055733;28;20028;-72
2023/03/27 05:42:54;;;;;;;0.20;0.20;;;;;;;13.36;100.00;99052.00;5055697;28;20043;-72
2023/03/27 05:45:21;;;;;;;0.22;0.22;;;;;;;13.45;99.47;99057.94;5055624;28;20033;-70
2023/03/27 05:47:53;;;;;;;0.20;0.20;;;;;;;13.85;97.45;99066.84;5055235;28;20033;-72
2023/03/27 05:50:22;;;;;;;0.20;0.20;;;;;;;14.58;92.88;99066.53;5055153;28;20036;-71
2023/03/27 05:52:57;;;;;;;0.20;0.20;;;;;;;15.08;88.81;99077.16;5054995;28;20021;-72
2023/03/27 05:55:24;;;;;;;0.20;0.20;;;;;;;14.73;89.55;99069.19;5055653;28;20117;-72
2023/03/27 05:57:54;;;;;;;0.28;0.28;;;;;;;14.50;91.22;99073.44;5055203;28;20024;-72
2023/03/27 06:00:24;;;;;;;0.20;0.20;;;;;;;14.30;93.26;99061.22;5061113;28;20127;-70
2023/03/27 06:02:53;;;;;;;0.20;0.20;;;;;;;14.26;94.71;99060.44;5079206;28;20032;-70
2023/03/27 06:05:19;;;;;;;0.20;0.20;;;;;;;14.17;95.82;99041.38;5078308;28;20028;-70
2023/03/27 06:07:48;;;;;;;0.20;0.20;;;;;;;14.24;93.54;99044.09;5079337;28;20040;-71
2023/03/27 06:10:19;;;;;;;0.22;0.22;;;;;;;15.16;87.65;99066.63;5078525;28;20378;-71
2023/03/27 06:12:49;;;;;;;0.20;0.20;;;;;;;15.08;85.58;99045.53;5096617;28;20028;-72
2023/03/27 06:15:19;;;;;;;0.20;0.20;;;;;;;14.84;86.81;99059.44;5078738;28;20050;-72
2023/03/27 06:17:48;;;;;;;0.20;0.20;;;;;;;14.68;86.35;99064.81;5077862;28;20031;-72
2023/03/27 06:20:14;;;;;;;0.20;0.20;;;;;;;14.48;87.45;99052.66;5078065;28;20024;-72
2023/03/27 06:22:54;;;;;;;0.20;0.20;;;;;;;14.42;87.44;99060.69;5078135;28;20039;-70
2023/03/27 06:25:21;;;;;;;0.20;0.20;;;;;;;14.40;87.90;99057.53;5079136;28;20494;-72
2023/03/27 06:27:52;;;;;;;0.20;0.20;;;;;;;14.30;86.74;99058.41;5080088;28;20077;-73
2023/03/27 06:30:23;;;;;;;0.30;0.30;;;;;;;14.39;85.99;99055.94;5095539;28;20028;-70
2023/03/27 06:32:52;;;;;;;0.20;0.20;;;;;;;14.47;85.68;99060.25;5095704;28;20126;-71
2023/03/27 06:35:19;;;;;;;0.20;0.20;;;;;;;14.56;86.07;99059.78;5078308;28;20442;-72
2023/03/27 06:37:47;;;;;;;0.20;0.20;;;;;;;15.44;80.69;99069.03;5095583;28;20471;-72
2023/03/27 06:40:24;;;;;;;0.20;0.20;;;;;;;15.10;81.26;99076.72;5077992;28;20058;-71
2023/03/27 06:43:03;;;;;;;0.20;0.20;;;;;;;14.84;81.95;99069.84;5096036;28;20028;-72
2023/03/27 06:45:32;;;;;;;0.28;0.28;;;;;;;15.65;78.82;99078.38;5077651;28;20028;-72
2023/03/27 06:48:02;;;;;;;0.20;0.20;;;;;;;16.04;74.32;99066.53;5095728;28;20024;-71
2023/03/27 06:50:31;;;;;;;0.20;0.20;;;;;;;16.45;71.37;99063.38;5094399;28;20020;-70
2023/03/27 06:53:00;;;;;;;0.20;0.20;;;;;;;17.13;68.03;99084.53;5094343;28;20505;-70
2023/03/27 06:55:30;;;;;;;0.20;0.20;;;;;;;17.65;64.96;99074.56;5077638;28;20032;-72
2023/03/27 06:57:58;;;;;;;0.20;0.20;;;;;;;17.88;63.45;99084.88;5094172;28;20115;-71
2023/03/27 07:00:30;;;;;;;0.20;0.20;;;;;;;18.25;60.56;99084.34;5076988;28;20075;-72
2023/03/27 07:03:03;;;;;;;0.20;0.20;;;;;;;18.42;59.42;99075.84;5095529;28;20039;-70
2023/03/27 07:05:35;;;;;;;0.20;0.20;;;;;;;18.29;61.35;99073.78;5076693;28;20039;-72
2023/03/27 07:08:04;;;;;;;0.20;0.20;;;;;;;18.13;61.29;99090.69;5077755;28;20040;-71
2023/03/27 07:10:32;;;;;;;0.20;0.20;;;;;;;17.49;65.22;99086.56;5094127;28;20097;-71
2023/03/27 07:12:58;;;;;;;0.20;0.20;;;;;;;17.02;68.80;99095.19;5077252;28;20029;-70
2023/03/27 07:15:24;;;;;;;0.20;0.20;;;;;;;16.29;68.70;99096.16;5079281;28;20110;-71
2023/03/27 07:17:58;;;;;;;0.20;0.20;;;;;;;17.02;64.88;99083.97;5095343;28;20028;-70
2023/03/27 07:20:26;;;;;;;;;;;;;;;17.74;62.88;99097.28;5096243;28;20061;-71
2023/03/27 07:22:56;;;;;;;0.20;0.20;;;;;;;18.17;58.60;99077.31;5094005;28;19912;-74
2023/03/27 07:25:36;;;;;;;0.20;0.20;;;;;;;17.04;64.49;99081.50;5093656;28;20066;-71
2023/03/27 07:28:09;;;;;;;0.20;0.20;;;;;;;17.02;66.49;99106.44;5077038;28;20051;-71
2023/03/27 07:30:35;;;;;;;0.20;0.20;;;;;;;16.56;73.88;99090.44;5076951;28;20024;-71
2023/03/27 07:33:04;;;;;;;0.20;0.20;;;;;;;16.20;78.36;99125.59;5076656;28;20046;-73
2023/03/27 07:35:30;;;;;;;0.20;0.20;;;;;;;15.66;80.43;99047.13;5077853;28;20413;-73
2023/03/27 07:37:58;;;;;;;0.30;0.30;;;;;;;15.84;81.21;99057.25;5077016;28;20024;-72
2023/03/27 07:40:27;;;;;;;0.20;0.20;;;;;;;16.48;79.01;99042.06;5077395;28;20130;-72
2023/03/27 07:42:52;;;;;;;0.20;0.20;;;;;;;17.20;75.17;99024.53;5077255;28;20028;-74
2023/03/27 07:45:22;;;;;;;0.20;0.20;;;;;;;17.24;72.20;99020.44;5077584;28;20111;-73
2023/03/27 07:47:48;;;;;;;0.20;0.20;;;;;;;17.76;71.09;99044.97;5077203;28;20024;-73
2023/03/27 07:50:16;;;;;;;0.20;0.20;;;;;;;17.87;69.82;99038.28;5076661;28;20024;-71
2023/03/27 07:52:43;;;;;;;0.20;0.20;;;;;;;18.11;68.18;99050.94;5076962;28;20122;-71
2023/03/27 07:55:11;;;;;;;0.20;0.20;;;;;;;17.96;65.81;99044.88;5077445;28;20081;-71
2023/03/27 07:57:44;;;;;;;0.20;0.20;;;;;;;18.37;64.57;99036.97;5077153;28;20336;-72
2023/03/27 08:00:10;;;;;;;0.20;0.20;;;;;;;17.74;65.66;99050.25;5094174;28;20367;-73
2023/03/27 08:02:37;;;;;;;0.20;0.20;;;;;;;16.98;69.25;99061.53;5076962;28;20024;-71
2023/03/27 08:05:10;;;;;;;0.20;0.20;;;;;;;15.97;73.73;99047.00;5077634;28;20161;-71
2023/03/27 08:07:41;;;;;;;0.20;0.20;;;;;;;15.63;74.69;99052.78;5077365;28;20088;-72
2023/03/27 08:10:08;;;;;;;0.20;0.20;;;;;;;15.94;74.31;99054.28;5095089;28;20112;-73
2023/03/27 08:12:38;;;;;;;0.20;0.20;;;;;;;16.89;71.70;99052.13;5093293;28;20600;-72
2023/03/27 08:15:05;;;;;;;0.30;0.30;;;;;;;17.05;69.76;99031.72;5076751;28;20028;-70
2023/03/27 08:17:32;;;;;;;0.20;0.20;;;;;;;16.94;69.49;99048.81;5093425;28;20047;-71
2023/03/27 08:20:08;;;;;;;0.20;0.20;;;;;;;17.46;65.41;99036.81;5094214;28;20494;-72
2023/03/27 08:22:37;;;;;;;0.20;0.20;;;;;;;17.77;64.06;99054.97;5076342;28;20131;-70
2023/03/27 08:25:05;;;;;;;0.20;0.20;;;;;;;17.35;64.62;99050.31;5075922;28;20028;-72
2023/03/27 08:27:31;;;;;;;0.20;0.20;;;;;;;17.35;60.08;99048.31;5094334;28;20032;-72
2023/03/27 08:30:00;;;;;;;0.20;0.20;;;;;;;17.19;59.46;99057.50;5076387;28;20020;-71
2023/03/27 08:32:28;;;;;;;0.20;0.20;;;;;;;16.42;62.75;99058.63;5075915;28;20035;-71
2023/03/27 08:34:54;;;;;;;0.20;0.20;;;;;;;15.89;63.18;99048.34;5092742;28;20028;-71
2023/03/27 08:37:24;;;;;;;0.30;0.30;;;;;;;15.88;63.55;99069.22;5076360;28;20062;-72
2023/03/27 08:39:57;;;;;;;0.20;0.20;;;;;;;15.84;63.99;99063.66;5092681;28;20024;-70
2023/03/27 08:42:32;;;;;;;0.20;0.20;;;;;;;15.87;65.23;99067.59;5076223;28;20339;-72
2023/03/27 08:45:06;;;;;;;0.20;0.20;;;;;;;15.94;63.94;99073.13;5093551;28;20097;-71
2023/03/27 08:47:39;;;;;;;0.20;0.20;;;;;;;15.81;63.31;99063.69;5077529;28;20462;-73
2023/03/27 08:50:20;;;;;;;0.20;0.20;;;;;;;15.84;65.24;99085.28;5076803;28;20070;-72
2023/03/27 08:52:48;;;;;;;0.20;0.20;;;;;;;15.71;64.94;99082.28;5093478;28;20036;-72
2023/03/27 08:55:19;;;;;;;0.20;0.20;;;;;;;16.03;63.07;99104.19;5076235;28;20024;-71
2023/03/27 08:57:45;;;;;;;0.20;0.20;;;;;;;16.26;61.47;99111.84;5075882;28;20028;-72
2023/03/27 09:00:21;;;;;;;0.20;0.20;;;;;;;15.94;62.75;99106.78;5075370;28;20028;-71
2023/03/27 09:02:51;;;;;;;0.20;0.20;;;;;;;15.97;63.15;99111.53;5076119;28;20028;-72
2023/03/27 09:05:41;;;;;;;0.20;0.20;;;;;;;16.45;61.99;99104.69;5093153;28;20032;-71
2023/03/27 09:08:51;;;;;;;0.20;0.20;;;;;;;17.57;58.78;99110.47;5075539;28;20028;-72
2023/03/27 09:11:33;;;;;;;0.20;0.20;;;;;;;17.24;56.96;99106.78;5050978;28;20057;-70
2023/03/27 09:14:00;;;;;;;0.20;0.20;;;;;;;16.62;59.96;99089.53;5090867;28;20445;-70
2023/03/27 09:16:48;;;;;;;0.20;0.20;;;;;;;15.98;61.58;99096.31;5075689;28;20083;-70
2023/03/27 09:19:22;;;;;;;0.20;0.20;;;;;;;15.69;62.82;99021.03;5093596;28;20035;-75
2023/03/27 09:21:57;;;;;;;0.20;0.20;;;;;;;16.34;63.07;99090.84;5075698;28;20127;-72
2023/03/27 09:24:29;;;;;;;0.20;0.20;;;;;;;16.23;63.58;99093.84;5093500;28;20382;-72
2023/03/27 09:26:56;;;;;;;0.20;0.20;;;;;;;15.99;61.97;99095.06;5075277;28;20568;-71
2023/03/27 09:29:28;;;;;;;0.20;0.20;;;;;;;15.85;58.14;99103.72;5078462;28;20115;-70
2023/03/27 09:31:56;;;;;;;0.20;0.20;;;;;;;15.81;58.34;99102.97;5096127;28;20363;-71
2023/03/27 09:34:34;;;;;;;0.20;0.20;;;;;;;15.79;58.39;99099.81;5079166;28;20024;-72
2023/03/27 09:37:04;;;;;;;0.20;0.20;;;;;;;15.65;56.73;99117.63;5096324;28;20028;-72
2023/03/27 09:39:32;;;;;;;0.20;0.20;;;;;;;15.44;58.48;99113.88;5079157;28;20032;-72
2023/03/27 09:42:25;;;;;;;0.20;0.20;;;;;;;15.32;58.65;99119.25;5078831;28;20032;-70
2023/03/27 09:44:57;;;;;;;0.20;0.20;;;;;;;16.00;55.08;99119.09;5078698;28;20036;-71
2023/03/27 09:47:54;;;;;;;0.20;0.20;;;;;;;16.29;50.82;99132.66;5096898;28;20038;-71
2023/03/27 09:50:53;;;;;;;0.20;0.20;;;;;;;16.10;47.62;99134.97;5096510;28;20412;-70
2023/03/27 09:53:22;;;;;;;0.20;0.20;;;;;;;16.07;46.14;99124.59;5096520;28;20020;-73
2023/03/27 09:56:02;;;;;;;0.20;0.20;;;;;;;16.19;46.10;99140.84;5079102;28;20028;-72
2023/03/27 09:58:34;;;;;;;0.20;0.20;;;;;;;16.41;46.05;99135.66;5079570;28;20158;-71
2023/03/27 10:01:12;;;;;;;0.20;0.20;;;;;;;16.67;46.50;99142.41;5078360;28;20079;-72
2023/03/27 10:03:48;;;;;;;0.20;0.20;;;;;;;16.31;46.69;99135.84;5097038;28;20024;-71
2023/03/27 10:06:28;;;;;;;0.20;0.20;;;;;;;16.44;46.96;99140.41;5079013;28;20039;-72
2023/03/27 10:09:06;;;;;;;0.20;0.20;;;;;;;17.04;45.37;99120.84;5097093;28;20028;-70
2023/03/27 10:11:37;;;;;;;0.20;0.20;;;;;;;16.68;45.50;99121.53;5097269;28;20024;-71
2023/03/27 10:14:14;;;;;;;0.20;0.20;;;;;;;17.05;45.09;99130.88;5097048;28;20020;-72
2023/03/27 10:16:44;;;;;;;0.20;0.20;;;;;;;17.16;44.67;99123.00;5095437;28;20039;-71
2023/03/27 10:19:43;;;;;;;0.20;0.20;;;;;;;17.38;45.14;99136.63;5078884;28;20032;-69
2023/03/27 10:22:30;;;;;;;0.20;0.20;;;;;;;17.01;44.41;99128.13;5087021;28;20036;-70
2023/03/27 10:25:17;;;;;;;0.20;0.20;;;;;;;16.91;44.41;99122.72;5078369;28;20024;-70
2023/03/27 10:27:45;;;;;;;0.20;0.20;;;;;;;17.47;43.88;99120.75;5096399;28;20526;-71
2023/03/27 10:30:32;;;;;;;0.20;0.20;;;;;;;18.19;41.74;99130.34;5096011;28;20112;-72
2023/03/27 10:33:01;;;;;;;0.20;0.20;;;;;;;18.35;42.42;99127.53;5078009;28;20113;-72
2023/03/27 10:35:36;;;;;;;0.20;0.20;;;;;;;18.42;41.43;99123.72;5095598;28;20020;-70
2023/03/27 10:38:12;;;;;;;0.20;0.20;;;;;;;18.25;40.13;99111.69;5078086;28;20032;-71
2023/03/27 10:40:43;;;;;;;0.20;0.20;;;;;;;18.11;41.51;99124.13;5094575;28;20039;-72
2023/03/27 10:43:27;;;;;;;0.20;0.20;;;;;;;17.83;42.68;99116.34;5077521;28;20024;-72
2023/03/27 10:46:03;;;;;;;0.20;0.20;;;;;;;17.86;42.36;99104.22;5094190;28;20035;-72
2023/03/27 10:48:53;;;;;;;0.20;0.20;;;;;;;17.73;42.19;99106.91;5077862;28;20455;-72
2023/03/27 10:51:56;;;;;;;0.20;0.20;;;;;;;17.33;42.99;99109.81;5094306;28;20031;-72
2023/03/27 10:54:34;;;;;;;0.20;0.20;;;;;;;17.18;42.76;99128.19;5081589;28;20104;-72
2023/03/27 10:57:17;;;;;;;0.20;0.20;;;;;;;17.14;42.64;99136.69;5077921;28;20096;-71
2023/03/27 11:00:12;;;;;;;0.20;0.20;;;;;;;17.23;42.07;99136.13;5077522;28;20035;-72
2023/03/27 11:02:46;;;;;;;0.20;0.20;;;;;;;16.93;43.93;99139.94;5077238;28;20126;-70
2023/03/27 11:05:37;;;;;;;0.20;0.20;;;;;;;17.05;42.91;99149.75;5077342;28;20032;-70
2023/03/27 11:08:14;;;;;;;0.20;0.20;;;;;;;16.97;42.53;99104.13;5095932;28;20020;-72
2023/03/27 11:10:44;;;;;;;0.20;0.20;;;;;;;17.26;43.38;99150.13;5077007;28;20035;-72
2023/03/27 11:13:21;;;;;;;0.20;0.20;;;;;;;16.75;43.62;99143.88;5077035;28;20467;-70
2023/03/27 11:15:53;;;;;;;0.20;0.20;;;;;;;16.77;43.07;99154.69;5094807;28;20032;-72
2023/03/27 11:18:31;;;;;;;0.20;0.20;;;;;;;16.56;43.61;99155.03;5093799;28;20027;-71
2023/03/27 11:20:59;;;;;;;0.20;0.20;;;;;;;16.29;44.35;99129.84;5076854;28;20043;-70
2023/03/27 11:23:44;;;;;;;0.20;0.20;;;;;;;15.95;44.71;99153.25;5077490;28;20024;-71
2023/03/27 11:26:14;;;;;;;0.20;0.20;;;;;;;16.06;44.07;99145.44;5076771;28;20119;-71
2023/03/27 11:29:02;;;;;;;0.20;0.20;;;;;;;16.22;43.92;99150.41;5077041;28;20051;-72
2023/03/27 11:31:48;;;;;;;0.20;0.20;;;;;;;16.33;44.37;99161.44;5076996;28;20089;-71
2023/03/27 11:34:36;;;;;;;0.20;0.20;;;;;;;16.37;43.72;99150.97;5094313;28;20027;-71
2023/03/27 11:37:20;;;;;;;0.20;0.20;;;;;;;16.71;43.65;99159.22;5075899;28;20127;-72
2023/03/27 11:39:47;;;;;;;;;;;;;;;17.09;43.51;99153.28;5077808;28;20024;-71
2023/03/27 11:42:15;;;;;;;0.20;0.20;;;;;;;17.33;42.73;99159.63;5093308;28;19908;-70
2023/03/27 11:44:45;;;;;;;0.20;0.20;;;;;;;17.65;40.52;99159.72;5093561;28;20043;-71
2023/03/27 11:47:29;;;;;;;0.20;0.20;;;;;;;17.86;40.52;99157.69;5093915;28;20036;-70
2023/03/27 11:50:14;;;;;;;0.20;0.20;;;;;;;17.55;41.53;99138.25;5076309;28;20519;-71
2023/03/27 11:53:01;;;;;;;0.20;0.20;;;;;;;18.22;40.67;99158.44;5076087;28;20402;-70
2023/03/27 11:55:36;;;;;;;0.20;0.20;;;;;;;18.10;40.26;99161.94;5076175;28;20478;-70
2023/03/27 11:58:04;;;;;;;0.20;0.20;;;;;;;18.06;39.51;99167.66;5076196;28;20478;-70
2023/03/27 12:00:41;;;;;;;0.20;0.20;;;;;;;17.78;41.25;99169.09;5075950;28;20044;-69